WetterOnline ( https://www.wetteronline.ch )

Wetter aktuell Lüchow

Aktuelles Wetter: Lüchow (18m)

6-stündlich | Neueste Meldungen
Ortszeit Temperatur Wetter
Fr, 10.07. 20:00 14.7° C wolkig
Fr, 10.07. 14:00 20.7° C bedeckt
Fr, 10.07. 8:00 15.1° C bedeckt
Fr, 10.07. 2:00 13.6° C Sprühregen
Do, 09.07. 20:00 15.4° C Sprühregen
Do, 09.07. 14:00 16.1° C Sprühregen
Do, 09.07. 8:00 12.5° C leichter Regen
Do, 09.07. 2:00 12.4° C bewölkt
Ortszeit Temperatur Wetter
Fr, 10.07. 22:00 13.6° C bewölkt
Fr, 10.07. 21:50 13.6° C bewölkt
Fr, 10.07. 21:40 13.8° C bedeckt
Fr, 10.07. 21:30 14.0° C bedeckt
Fr, 10.07. 21:20 14.0° C bedeckt
Fr, 10.07. 21:10 13.8° C bedeckt
Fr, 10.07. 21:00 13.9° C wolkig
Fr, 10.07. 20:30 14.8° C wolkenlos
Fr, 10.07. 20:00 14.7° C wolkig
Fr, 10.07. 19:30 14.5° C bedeckt
Fr, 10.07. 19:00 13.4° C bedeckt
Ortszeit Relative Feuchte Sichtweite
Fr, 10.07. 20:00 80% >70 km
Fr, 10.07. 14:00 77% 65 km
Fr, 10.07. 8:00 100% 5.0 km
Fr, 10.07. 2:00 97% 14 km
Do, 09.07. 20:00 95% 13 km
Do, 09.07. 14:00 96% 20 km
Do, 09.07. 8:00 94% 22 km
Do, 09.07. 2:00 95% 30 km
Ortszeit Relative Feuchte Sichtweite
Fr, 10.07. 22:00 86% 60 km
Fr, 10.07. 21:50 86% -
Fr, 10.07. 21:40 85% -
Fr, 10.07. 21:30 83% 65 km
Fr, 10.07. 21:20 83% -
Fr, 10.07. 21:10 87% -
Fr, 10.07. 21:00 83% >70 km
Fr, 10.07. 20:30 77% 55 km
Fr, 10.07. 20:00 80% >70 km
Fr, 10.07. 19:30 84% >70 km
Fr, 10.07. 19:00 89% 55 km
Ortszeit Niederschlagsmenge Niederschlagsart
Fr, 10.07. 20:00 1 l/m2 in 12 Std. Regen
Fr, 10.07. 14:00 0.1 l/m2 in 6 Std. Regen
Fr, 10.07. 8:00 1 l/m2 in 12 Std. Regen
Fr, 10.07. 2:00 0.5 l/m2 in 6 Std. Regen
Do, 09.07. 20:00 12 l/m2 in 12 Std. Regen
Do, 09.07. 14:00 5 l/m2 in 6 Std. Regen
Do, 09.07. 8:00 0.7 l/m2 in 12 Std. Regen
Do, 09.07. 2:00 0.1 l/m2 in 6 Std. Regen
Ortszeit Niederschlagsmenge Niederschlagsart
Fr, 10.07. 22:00 0.1 l/m2 in 1 Std. Regen
Fr, 10.07. 21:50 keine Meldung -
Fr, 10.07. 21:40 keine Meldung -
Fr, 10.07. 21:30 0.1 l/m2 in 1 Std. Schneeregen
Fr, 10.07. 21:20 keine Meldung -
Fr, 10.07. 21:10 keine Meldung -
Fr, 10.07. 21:00 0.0 l/m2 in 1 Std. -
Fr, 10.07. 20:30 0.0 l/m2 in 1 Std. -
Fr, 10.07. 20:00 0.1 l/m2 in 1 Std. Regen
Fr, 10.07. 19:30 0.1 l/m2 in 1 Std. Schneeregen
Fr, 10.07. 19:00 0.1 l/m2 in 1 Std. Regen
Ortszeit Stärke Spitze Richtung
km/h Bft. km/h Grad Sektor
Fr, 10.07. 20:00 9 2 43 300° NW
Fr, 10.07. 14:00 17 3 44 270° W
Fr, 10.07. 8:00 4 1 11 140° SO
Fr, 10.07. 2:00 4 1 18 60° NO
Do, 09.07. 20:00 6 1 37 300° NW
Do, 09.07. 14:00 11 2 25 230° SW
Do, 09.07. 8:00 7 2 11 80° O
Do, 09.07. 2:00 4 1 11 200° S
Ortszeit Stärke Spitze Richtung
km/h Bft. km/h Grad Sektor
Fr, 10.07. 22:00 7 2 11 250° W
Fr, 10.07. 21:50 7 2 - 250° W
Fr, 10.07. 21:40 7 2 - 250° W
Fr, 10.07. 21:30 7 2 11 250° W
Fr, 10.07. 21:20 7 2 - 250° W
Fr, 10.07. 21:10 6 1 - 240° SW
Fr, 10.07. 21:00 7 2 18 270° W
Fr, 10.07. 20:30 7 2 19 310° NW
Fr, 10.07. 20:00 9 2 20 300° NW
Fr, 10.07. 19:30 9 2 20 280° W
Fr, 10.07. 19:00 9 2 30 300° NW
Ortszeit Untergrenze Bedeckung Gattung
total tief tief mittel hoch
Fr, 10.07. 20:00 450 m 6/8 6/8 - - -
Fr, 10.07. 14:00 750 m 8/8 8/8 - - -
Fr, 10.07. 8:00 30 m 8/8 8/8 - - -
Fr, 10.07. 2:00 210 m 8/8 8/8 - - -
Do, 09.07. 20:00 270 m 8/8 8/8 - - -
Do, 09.07. 14:00 180 m 8/8 8/8 - - -
Do, 09.07. 8:00 360 m 8/8 8/8 - - -
Do, 09.07. 2:00 1080 m 8/8 6/8 - - -
Ortszeit Bedeckungsgrad in Achtel und Wolkenuntergrenze
Fr, 10.07. 22:00 1(1410m) 7(1500m)
Fr, 10.07. 21:50 1(1410m) 7(1500m)
Fr, 10.07. 21:40 1(750m) 2(1350m) 8(1500m)
Fr, 10.07. 21:30 2(780m) 4(1320m) 8(1500m)
Fr, 10.07. 21:20 2(780m) 4(1320m) 8(1500m)
Fr, 10.07. 21:10 1(1200m) 7(1500m) 8(1500m)
Fr, 10.07. 21:00 5(1500m) 7(1500m)
Fr, 10.07. 20:30 keine Wolken
Fr, 10.07. 20:00 2(450m) 4(1500m) 6(1800m)
Fr, 10.07. 19:30 1(1020m) 8(1500m)
Fr, 10.07. 19:00 1(360m) 5(870m) 8(1110m)
Ortszeit Luftdruck NN (hPa) Tendenz (hPa in 3 Std.)
Fr, 10.07. 20:00 1015 + 2,7
Fr, 10.07. 14:00 1006 + 0,4
Fr, 10.07. 8:00 1008 - 1,6
Fr, 10.07. 2:00 1011 - 0,5
Do, 09.07. 20:00 1011 + 0,8
Do, 09.07. 14:00 1011 - 1,7
Do, 09.07. 8:00 1015 - 0,8
Do, 09.07. 2:00 1016 - 0,3
Ortszeit Luftdruck NN (hPa) Tendenz (hPa in 3 Std.)
Fr, 10.07. 22:00 1016 + 1,8
Fr, 10.07. 21:50 1016 keine Meldung
Fr, 10.07. 21:40 1016 keine Meldung
Fr, 10.07. 21:30 1016 + 2,0
Fr, 10.07. 21:20 1016 keine Meldung
Fr, 10.07. 21:10 1016 keine Meldung
Fr, 10.07. 21:00 1015 + 2,1
Fr, 10.07. 20:30 1015 + 2,2
Fr, 10.07. 20:00 1015 + 2,7
Fr, 10.07. 19:30 1015 + 3,6
Fr, 10.07. 19:00 1014 + 4,3
Ortszeit Schneehöhe (cm)
Fr, 10.07. 20:00 -
Fr, 10.07. 14:00 -
Fr, 10.07. 8:00 -
Fr, 10.07. 2:00 -
Do, 09.07. 20:00 -
Do, 09.07. 14:00 -
Do, 09.07. 8:00 -
Do, 09.07. 2:00 -
Ortszeit Schneehöhe (cm)
Fr, 10.07. 22:00 -
Fr, 10.07. 21:50 -
Fr, 10.07. 21:40 -
Fr, 10.07. 21:30 -
Fr, 10.07. 21:20 -
Fr, 10.07. 21:10 -
Fr, 10.07. 21:00 -
Fr, 10.07. 20:30 -
Fr, 10.07. 20:00 -
Fr, 10.07. 19:30 -
Fr, 10.07. 19:00 -
Link zu dieser Seite / Seite empfehlen

Das Wetter in ...